Time;durP1;ratioP1;P1;durP2;ratioP2;P2;SDS_P1;SDS_P2;PMS_P1;PMS_P2;Temp;Humidity;BMP_temperature;BMP_pressure;BME280_temperature;BME280_humidity;BME280_pressure;Samples;Min_cycle;Max_cycle;Signal;HPM_P1;HPM_P2
2022/05/08 00:02:17;;;;;;;6.17;4.53;;;13.40;99.90;;;;;;5067075;28;20638;-54
2022/05/08 00:04:45;;;;;;;7.23;4.57;;;13.40;99.90;;;;;;5058898;28;20197;-54
2022/05/08 00:07:12;;;;;;;8.00;4.67;;;13.30;99.90;;;;;;5056029;28;20192;-54
2022/05/08 00:09:39;;;;;;;6.37;4.57;;;13.20;99.90;;;;;;5052082;28;20675;-54
2022/05/08 00:12:06;;;;;;;4.87;4.27;;;13.10;99.90;;;;;;5045608;28;20942;-53
2022/05/08 00:14:33;;;;;;;10.47;4.77;;;13.10;99.90;;;;;;5067362;28;20676;-55
2022/05/08 00:17:00;;;;;;;8.07;5.07;;;13.10;99.90;;;;;;5068463;28;20202;-54
2022/05/08 00:19:26;;;;;;;7.10;4.40;;;13.10;99.90;;;;;;5063907;28;20743;-55
2022/05/08 00:21:53;;;;;;;9.90;4.97;;;13.00;99.90;;;;;;5059964;28;20310;-55
2022/05/08 00:24:20;;;;;;;9.17;4.73;;;13.10;99.90;;;;;;5060976;28;20266;-54
2022/05/08 00:26:47;;;;;;;6.63;4.47;;;13.20;99.90;;;;;;5064956;28;20223;-54
2022/05/08 00:29:15;;;;;;;7.50;5.23;;;13.10;99.90;;;;;;5062347;28;20288;-54
2022/05/08 00:31:43;;;;;;;7.20;4.67;;;13.10;99.90;;;;;;5056557;28;20205;-53
2022/05/08 00:34:09;;;;;;;9.30;4.97;;;13.00;99.90;;;;;;5057502;28;20294;-54
2022/05/08 00:36:38;;;;;;;7.43;4.77;;;12.90;99.90;;;;;;5053743;28;20200;-54
2022/05/08 00:39:05;;;;;;;7.73;4.67;;;13.00;99.90;;;;;;5054988;28;20242;-56
2022/05/08 00:41:32;;;;;;;9.43;5.33;;;12.80;99.90;;;;;;5057286;28;20242;-54
2022/05/08 00:43:59;;;;;;;9.87;4.90;;;12.80;99.90;;;;;;5057423;28;20286;-55
2022/05/08 00:46:27;;;;;;;10.27;4.97;;;12.80;99.90;;;;;;5057923;28;20253;-53
2022/05/08 00:48:55;;;;;;;8.97;5.03;;;13.00;99.90;;;;;;5049949;28;20233;-54
2022/05/08 00:51:23;;;;;;;9.27;4.50;;;12.80;99.90;;;;;;5055272;28;20652;-54
2022/05/08 00:53:52;;;;;;;9.33;5.40;;;13.00;99.90;;;;;;5054278;28;20280;-54
2022/05/08 00:56:20;;;;;;;8.17;4.87;;;12.90;99.90;;;;;;5057156;28;20287;-55
2022/05/08 00:58:50;;;;;;;6.10;4.50;;;12.80;99.90;;;;;;5055000;28;20643;-54
2022/05/08 01:01:17;;;;;;;9.57;5.17;;;12.80;99.90;;;;;;5052672;28;20288;-54
2022/05/08 01:03:45;;;;;;;10.83;5.33;;;12.50;99.90;;;;;;5048891;28;20196;-53
2022/05/08 01:06:13;;;;;;;8.97;6.00;;;12.50;99.90;;;;;;5051396;28;20643;-55
2022/05/08 01:08:43;;;;;;;8.20;5.57;;;12.50;99.90;;;;;;5056963;28;20679;-55
2022/05/08 01:11:11;;;;;;;6.13;5.33;;;12.60;99.90;;;;;;5055217;28;20288;-54
2022/05/08 01:13:40;;;;;;;10.07;6.30;;;12.70;99.90;;;;;;5051519;28;20238;-53
2022/05/08 01:16:12;;;;;;;11.87;6.13;;;12.50;99.90;;;;;;5054772;28;20207;-55
2022/05/08 01:18:43;;;;;;;8.80;6.13;;;12.40;99.90;;;;;;5054757;28;20219;-54
2022/05/08 01:21:13;;;;;;;9.80;5.57;;;12.30;99.90;;;;;;5073894;28;20205;-55
2022/05/08 01:23:41;;;;;;;9.30;6.30;;;12.30;99.90;;;;;;5059300;28;20663;-54
2022/05/08 01:26:08;;;;;;;10.90;6.33;;;12.10;99.90;;;;;;5045893;28;20315;-55
2022/05/08 01:28:35;;;;;;;11.73;6.63;;;12.20;99.90;;;;;;5054114;28;20199;-54
2022/05/08 01:31:02;;;;;;;10.43;6.00;;;12.00;99.90;;;;;;5058826;28;20609;-55
2022/05/08 01:33:29;;;;;;;11.27;6.13;;;12.00;99.90;;;;;;5058403;28;20256;-54
2022/05/08 01:36:01;;;;;;;9.33;6.70;;;12.10;99.90;;;;;;5045805;28;20206;-54
2022/05/08 01:38:28;;;;;;;9.83;6.07;;;12.00;99.90;;;;;;5057955;28;20226;-57
2022/05/08 01:40:55;;;;;;;9.70;5.50;;;12.10;99.90;;;;;;5053600;28;20198;-58
2022/05/08 01:43:23;;;;;;;9.40;5.97;;;12.00;99.90;;;;;;5057466;28;20210;-55
2022/05/08 01:45:54;;;;;;;13.53;6.23;;;12.10;99.90;;;;;;5052336;28;20626;-55
2022/05/08 01:48:25;;;;;;;10.90;7.30;;;12.20;99.90;;;;;;5050819;28;20242;-54
2022/05/08 01:50:55;;;;;;;11.90;7.17;;;12.30;99.90;;;;;;5054189;28;20192;-56
2022/05/08 01:53:25;;;;;;;8.53;5.53;;;12.00;99.90;;;;;;5053418;28;20261;-56
2022/05/08 01:55:56;;;;;;;15.80;5.67;;;12.00;99.90;;;;;;5056330;28;20223;-56
2022/05/08 01:58:24;;;;;;;15.63;7.13;;;12.10;99.90;;;;;;5052749;28;20204;-56
2022/05/08 02:00:52;;;;;;;9.30;5.97;;;12.00;99.90;;;;;;5055279;28;20539;-55
2022/05/08 02:03:20;;;;;;;9.57;6.30;;;12.00;99.90;;;;;;5050384;28;20198;-55
2022/05/08 02:05:47;;;;;;;10.27;5.53;;;12.00;99.90;;;;;;5054356;28;20233;-55
2022/05/08 02:08:14;;;;;;;9.97;5.93;;;12.00;99.90;;;;;;5056247;28;20448;-53
2022/05/08 02:10:42;;;;;;;19.00;5.67;;;12.00;99.90;;;;;;5056769;28;20199;-55
2022/05/08 02:13:09;;;;;;;10.33;6.03;;;11.90;99.90;;;;;;5052661;28;20197;-55
2022/05/08 02:15:37;;;;;;;11.87;6.27;;;11.80;99.90;;;;;;5059017;28;20289;-54
2022/05/08 02:18:07;;;;;;;8.77;5.67;;;11.80;99.90;;;;;;5053603;28;20232;-55
2022/05/08 02:20:35;;;;;;;9.73;5.63;;;11.90;99.90;;;;;;5047092;28;20215;-55
2022/05/08 02:23:03;;;;;;;9.47;5.83;;;12.10;99.90;;;;;;5051783;28;20220;-53
2022/05/08 02:25:32;;;;;;;9.77;5.80;;;12.00;99.90;;;;;;5055747;28;20299;-53
2022/05/08 02:28:00;;;;;;;15.33;6.00;;;12.20;99.90;;;;;;5055542;28;20224;-54
2022/05/08 02:30:27;;;;;;;10.77;6.77;;;12.10;99.90;;;;;;5046245;28;20199;-57
2022/05/08 02:32:54;;;;;;;11.83;5.23;;;12.10;99.90;;;;;;5054202;28;20210;-55
2022/05/08 02:35:22;;;;;;;11.77;6.07;;;12.00;99.90;;;;;;5043671;28;20293;-55
2022/05/08 02:37:52;;;;;;;12.33;5.10;;;12.20;99.90;;;;;;5055369;28;20770;-55
2022/05/08 02:40:22;;;;;;;12.87;5.00;;;12.10;99.90;;;;;;5057631;28;20214;-54
2022/05/08 02:42:50;;;;;;;8.57;4.60;;;12.20;99.90;;;;;;5060996;28;20207;-56
2022/05/08 02:45:16;;;;;;;12.67;5.20;;;12.20;99.90;;;;;;5056648;28;20307;-56
2022/05/08 02:47:43;;;;;;;10.03;4.47;;;12.20;99.90;;;;;;5056780;28;20263;-52
2022/05/08 02:50:11;;;;;;;12.83;4.17;;;12.00;99.90;;;;;;5057044;28;20288;-57
2022/05/08 02:52:42;;;;;;;13.97;4.00;;;11.80;99.90;;;;;;5059556;28;20228;-56
2022/05/08 03:00:43;;;;;;;9.83;3.87;;;11.80;99.90;;;;;;5055726;28;20315;-54
2022/05/08 03:03:11;;;;;;;11.50;3.93;;;11.90;99.90;;;;;;5058196;28;20658;-56
2022/05/08 03:05:42;;;;;;;8.97;3.80;;;12.00;99.90;;;;;;5053852;28;20279;-55
2022/05/08 03:08:11;;;;;;;10.57;3.77;;;12.00;99.90;;;;;;5055386;28;20436;-55
2022/05/08 03:13:23;;;;;;;13.80;3.90;;;11.70;99.90;;;;;;5061477;28;20215;-56
2022/05/08 03:15:50;;;;;;;9.13;3.63;;;11.60;99.90;;;;;;5055795;28;20288;-55
2022/05/08 03:18:18;;;;;;;10.27;4.37;;;11.70;99.90;;;;;;5060065;28;20291;-56
2022/05/08 03:20:45;;;;;;;18.77;4.90;;;11.80;99.90;;;;;;5058803;28;20565;-55
2022/05/08 03:23:11;;;;;;;11.43;3.80;;;11.80;99.90;;;;;;5058836;28;20242;-55
2022/05/08 03:25:38;;;;;;;23.83;4.30;;;11.70;99.90;;;;;;5059329;28;20277;-55
2022/05/08 03:28:05;;;;;;;11.27;3.97;;;11.70;99.90;;;;;;5058204;28;20686;-54
2022/05/08 03:30:32;;;;;;;11.37;3.87;;;11.70;99.90;;;;;;5056584;28;20225;-55
2022/05/08 03:32:59;;;;;;;11.73;3.37;;;11.50;99.90;;;;;;5060874;28;20359;-55
2022/05/08 03:35:26;;;;;;;15.53;4.60;;;11.50;99.90;;;;;;5052503;28;20203;-54
2022/05/08 03:37:52;;;;;;;11.53;4.50;;;11.50;99.90;;;;;;5060629;28;20290;-54
2022/05/08 03:40:19;;;;;;;14.53;3.50;;;11.60;99.90;;;;;;5058166;28;20222;-54
2022/05/08 03:42:46;;;;;;;11.67;3.60;;;11.60;99.90;;;;;;5059765;28;20294;-54
2022/05/08 03:45:13;;;;;;;10.43;3.60;;;11.50;99.90;;;;;;5055152;28;20308;-53
2022/05/08 03:47:40;;;;;;;13.03;3.27;;;11.60;99.90;;;;;;5050418;28;20261;-54
2022/05/08 03:50:07;;;;;;;12.77;4.30;;;11.40;99.90;;;;;;5051782;28;20202;-56
2022/05/08 03:52:34;;;;;;;14.97;4.30;;;11.30;99.90;;;;;;5059025;28;21833;-54
2022/05/08 03:55:05;;;;;;;11.60;3.63;;;11.20;99.90;;;;;;5053356;28;21701;-55
2022/05/08 03:57:32;;;;;;;12.27;3.70;;;11.30;99.90;;;;;;5053588;28;20731;-57
2022/05/08 03:59:59;;;;;;;10.60;3.43;;;11.20;99.90;;;;;;5057726;28;20686;-56
2022/05/08 04:02:26;;;;;;;15.07;3.47;;;11.10;99.90;;;;;;5060068;28;21497;-55
2022/05/08 04:05:00;;;;;;;15.03;3.70;;;11.30;99.90;;;;;;5054217;28;20549;-55
2022/05/08 04:07:27;;;;;;;15.60;3.70;;;11.40;99.90;;;;;;5060807;28;20192;-56
2022/05/08 04:09:54;;;;;;;8.50;3.00;;;11.30;99.90;;;;;;5053959;28;20292;-54
2022/05/08 04:12:21;;;;;;;11.43;3.90;;;11.40;99.90;;;;;;5059134;28;20301;-54
2022/05/08 04:14:47;;;;;;;16.23;3.80;;;11.40;99.90;;;;;;5057185;28;20206;-56
2022/05/08 04:17:15;;;;;;;11.97;3.27;;;11.40;99.90;;;;;;5057443;28;20234;-53
2022/05/08 04:19:43;;;;;;;10.20;2.97;;;11.40;99.90;;;;;;5053763;28;20218;-55
2022/05/08 04:24:57;;;;;;;15.50;3.87;;;11.20;99.90;;;;;;5057177;28;20288;-54
2022/05/08 04:27:24;;;;;;;10.23;3.90;;;11.20;99.90;;;;;;5048737;28;20206;-54
2022/05/08 04:29:50;;;;;;;21.37;3.60;;;11.20;99.90;;;;;;5048359;28;20290;-55
2022/05/08 04:32:17;;;;;;;13.93;3.13;;;11.20;99.90;;;;;;5056484;28;20278;-55
2022/05/08 04:34:44;;;;;;;7.90;3.20;;;11.00;99.90;;;;;;5046833;28;20207;-54
2022/05/08 04:37:11;;;;;;;11.53;3.43;;;10.90;99.90;;;;;;5053168;28;20350;-53
2022/05/08 04:39:38;;;;;;;19.40;3.33;;;10.90;99.90;;;;;;5055726;28;20242;-54
2022/05/08 04:42:05;;;;;;;14.27;3.50;;;10.90;99.90;;;;;;5051430;28;20749;-54
2022/05/08 04:44:31;;;;;;;14.27;3.20;;;10.90;99.90;;;;;;5054901;28;20672;-55
2022/05/08 04:46:58;;;;;;;14.03;3.40;;;11.10;99.90;;;;;;5056506;28;20326;-53
2022/05/08 04:49:25;;;;;;;15.97;3.20;;;11.10;99.90;;;;;;5053753;28;20520;-54
2022/05/08 04:51:51;;;;;;;13.90;3.23;;;11.00;99.90;;;;;;5053042;28;20292;-54
2022/05/08 04:54:18;;;;;;;15.80;3.00;;;10.90;99.90;;;;;;5054400;28;20197;-54
2022/05/08 04:56:45;;;;;;;17.83;3.13;;;10.80;99.90;;;;;;5047826;28;20715;-54
2022/05/08 04:59:12;;;;;;;14.67;3.40;;;10.80;99.90;;;;;;5056039;28;20918;-54
2022/05/08 05:01:39;;;;;;;15.27;4.27;;;10.80;99.90;;;;;;5055458;28;20292;-54
2022/05/08 05:04:05;;;;;;;13.53;3.53;;;10.90;99.90;;;;;;5050457;28;20204;-53
2022/05/08 05:06:32;;;;;;;16.63;2.90;;;11.00;99.90;;;;;;5051994;28;20218;-55
2022/05/08 05:08:59;;;;;;;9.80;2.73;;;10.90;99.90;;;;;;5053389;28;20228;-54
2022/05/08 05:11:26;;;;;;;10.83;3.13;;;10.90;99.90;;;;;;5050207;28;21129;-55
2022/05/08 05:13:53;;;;;;;12.17;3.27;;;10.70;99.90;;;;;;5052662;28;20651;-55
2022/05/08 05:16:20;;;;;;;10.93;2.90;;;10.80;99.90;;;;;;5059125;28;20233;-54
2022/05/08 05:18:46;;;;;;;15.43;3.47;;;10.90;99.90;;;;;;5052406;28;20267;-55
2022/05/08 05:21:13;;;;;;;14.60;4.10;;;11.00;99.90;;;;;;5053824;28;20241;-55
2022/05/08 05:23:42;;;;;;;9.60;3.20;;;11.00;99.90;;;;;;5052653;28;20337;-54
2022/05/08 05:26:09;;;;;;;14.43;3.10;;;10.80;99.90;;;;;;5057302;28;20284;-55
2022/05/08 05:28:35;;;;;;;15.10;3.13;;;10.70;99.90;;;;;;5056798;28;20467;-55
2022/05/08 05:31:02;;;;;;;8.00;2.63;;;10.60;99.90;;;;;;5049222;28;20254;-53
2022/05/08 05:33:29;;;;;;;12.60;3.30;;;10.60;99.90;;;;;;5055688;28;20225;-54
2022/05/08 05:35:56;;;;;;;13.33;3.07;;;10.60;99.90;;;;;;5056912;28;20229;-54
2022/05/08 05:38:23;;;;;;;12.87;3.47;;;10.50;99.90;;;;;;5057189;28;20308;-54
2022/05/08 05:40:49;;;;;;;14.17;3.10;;;10.50;99.90;;;;;;5056954;28;20310;-53
2022/05/08 05:43:16;;;;;;;20.50;3.97;;;10.60;99.90;;;;;;5049744;28;20234;-54
2022/05/08 05:45:43;;;;;;;16.03;3.23;;;10.60;99.90;;;;;;5059868;28;20226;-55
2022/05/08 05:48:10;;;;;;;12.80;3.30;;;10.70;99.90;;;;;;5052120;28;20252;-54
2022/05/08 05:50:37;;;;;;;9.57;3.00;;;10.60;99.90;;;;;;5058099;28;20208;-53
2022/05/08 05:53:04;;;;;;;12.37;2.87;;;10.60;99.90;;;;;;5058794;28;20226;-54
2022/05/08 05:55:31;;;;;;;16.83;3.20;;;10.90;99.90;;;;;;5054067;28;20865;-54
2022/05/08 05:57:58;;;;;;;14.20;3.50;;;10.90;99.90;;;;;;5060401;28;20229;-52
2022/05/08 06:00:24;;;;;;;11.90;4.00;;;10.80;99.90;;;;;;5055895;28;20752;-51
2022/05/08 06:02:51;;;;;;;20.47;3.97;;;10.90;99.90;;;;;;5048620;28;20220;-51
2022/05/08 06:05:18;;;;;;;15.23;3.10;;;11.10;99.90;;;;;;5051196;28;20238;-52
2022/05/08 06:07:45;;;;;;;14.40;3.17;;;11.00;99.90;;;;;;5051000;28;20258;-52
2022/05/08 06:10:12;;;;;;;13.77;3.10;;;11.20;99.90;;;;;;5052352;28;20228;-53
2022/05/08 06:12:39;;;;;;;9.53;3.00;;;11.10;99.90;;;;;;5053541;28;20235;-53
2022/05/08 06:15:08;;;;;;;14.57;4.50;;;11.40;99.90;;;;;;5055053;28;20297;-52
2022/05/08 06:17:36;;;;;;;11.53;3.17;;;11.20;99.90;;;;;;5064186;28;20214;-53
2022/05/08 06:20:03;;;;;;;12.00;2.67;;;11.10;99.90;;;;;;5061963;28;20214;-52
2022/05/08 06:22:33;;;;;;;15.50;3.43;;;11.10;99.90;;;;;;5057079;28;20572;-52
2022/05/08 06:25:00;;;;;;;14.40;3.63;;;11.10;99.90;;;;;;5061971;28;20668;-52
2022/05/08 06:27:26;;;;;;;17.53;3.47;;;11.30;99.90;;;;;;5042641;28;20202;-51
2022/05/08 06:29:53;;;;;;;10.37;3.23;;;11.40;99.90;;;;;;5060797;28;20232;-51
2022/05/08 06:32:21;;;;;;;18.20;3.73;;;11.30;99.90;;;;;;5062438;28;20287;-53
2022/05/08 06:34:48;;;;;;;16.13;3.60;;;11.40;99.90;;;;;;5058004;28;20204;-52
2022/05/08 06:37:15;;;;;;;15.93;4.10;;;11.30;99.90;;;;;;5050112;28;20612;-52
2022/05/08 06:39:42;;;;;;;13.87;3.40;;;11.50;99.90;;;;;;5053177;28;20230;-52
2022/05/08 06:42:09;;;;;;;15.90;3.57;;;11.70;99.90;;;;;;5056945;28;20462;-52
2022/05/08 06:44:36;;;;;;;15.97;3.60;;;11.70;99.90;;;;;;5063014;28;20281;-52
2022/05/08 06:47:04;;;;;;;11.50;4.07;;;11.80;99.90;;;;;;5064841;28;20227;-51
2022/05/08 06:49:31;;;;;;;14.80;3.17;;;11.80;99.90;;;;;;5054107;28;20269;-51
2022/05/08 06:51:58;;;;;;;14.23;3.63;;;11.70;99.90;;;;;;5058790;28;20296;-51
2022/05/08 06:54:26;;;;;;;10.20;2.80;;;11.70;99.90;;;;;;5059435;28;20323;-50
2022/05/08 06:56:53;;;;;;;12.97;3.77;;;11.80;99.90;;;;;;5059853;28;20222;-50
2022/05/08 07:02:07;;;;;;;17.50;5.27;;;11.70;99.90;;;;;;5048312;28;20201;-52
2022/05/08 07:04:34;;;;;;;10.67;3.20;;;12.00;99.90;;;;;;5051126;28;20227;-51
2022/05/08 07:07:01;;;;;;;11.87;3.40;;;12.40;99.90;;;;;;5053721;28;20295;-51
2022/05/08 07:09:28;;;;;;;15.93;3.10;;;12.20;99.90;;;;;;5057290;28;20252;-53
2022/05/08 07:11:55;;;;;;;14.30;3.50;;;12.30;99.90;;;;;;5061204;28;20237;-50
2022/05/08 07:14:27;;;;;;;13.57;3.43;;;12.10;99.90;;;;;;5060315;28;20286;-51
2022/05/08 07:16:54;;;;;;;15.30;3.83;;;12.10;99.90;;;;;;5054556;28;20321;-52
2022/05/08 07:19:21;;;;;;;14.57;3.57;;;12.30;99.90;;;;;;5060117;28;20199;-51
2022/05/08 07:21:48;;;;;;;12.10;3.10;;;12.70;99.90;;;;;;5060777;28;20250;-52
2022/05/08 07:24:20;;;;;;;13.17;3.47;;;13.30;99.90;;;;;;5059534;28;20207;-52
2022/05/08 07:26:47;;;;;;;10.70;3.23;;;13.10;99.90;;;;;;5058798;28;20197;-51
2022/05/08 07:29:15;;;;;;;16.27;4.10;;;12.70;99.90;;;;;;5058803;28;20242;-51
2022/05/08 07:31:43;;;;;;;12.67;3.60;;;12.70;99.90;;;;;;5060429;28;20209;-52
2022/05/08 07:36:56;;;;;;;11.43;2.47;;;14.00;99.90;;;;;;5059111;28;20199;-51
2022/05/08 07:39:23;;;;;;;11.43;4.43;;;14.50;99.90;;;;;;5051322;28;20258;-51
2022/05/08 07:41:49;;;;;;;12.67;3.07;;;13.80;99.90;;;;;;5060254;28;20211;-51
2022/05/08 07:44:17;;;;;;;14.73;3.60;;;13.50;99.90;;;;;;5052292;28;20233;-52
2022/05/08 07:46:44;;;;;;;9.10;2.60;;;13.40;99.90;;;;;;5058316;28;20203;-51
2022/05/08 07:49:11;;;;;;;10.63;2.97;;;13.60;99.90;;;;;;5059430;28;20235;-51
2022/05/08 07:51:38;;;;;;;11.53;3.00;;;14.10;99.90;;;;;;5059744;28;20200;-51
2022/05/08 07:54:05;;;;;;;11.00;2.87;;;13.50;99.90;;;;;;5061425;28;20251;-51
2022/05/08 07:56:32;;;;;;;18.63;4.17;;;13.10;99.90;;;;;;5056333;28;20313;-51
2022/05/08 07:58:58;;;;;;;13.80;4.17;;;13.20;99.90;;;;;;5047361;28;20223;-52
2022/05/08 08:01:25;;;;;;;11.37;3.67;;;13.30;99.90;;;;;;5057507;28;20422;-55
2022/05/08 08:04:12;;;;;;;12.53;4.00;;;13.20;99.90;;;;;;5055152;28;20223;-52
2022/05/08 08:06:40;;;;;;;14.10;3.27;;;13.30;99.90;;;;;;5058562;28;20275;-52
2022/05/08 08:09:08;;;;;;;14.37;2.93;;;13.70;99.90;;;;;;5049863;28;20231;-52
2022/05/08 08:11:35;;;;;;;11.73;3.50;;;14.30;99.90;;;;;;5059233;28;20199;-52
2022/05/08 08:14:02;;;;;;;8.57;3.10;;;14.60;99.90;;;;;;5058489;28;20293;-51
2022/05/08 08:16:29;;;;;;;11.93;2.83;;;14.50;99.90;;;;;;5069967;28;20300;-50
2022/05/08 08:18:58;;;;;;;13.33;3.50;;;14.40;99.90;;;;;;5047084;28;20203;-52
2022/05/08 08:21:25;;;;;;;12.00;2.90;;;14.50;99.90;;;;;;5056036;28;20226;-52
2022/05/08 08:23:52;;;;;;;13.57;3.73;;;14.50;99.90;;;;;;5060015;28;20207;-53
2022/05/08 08:26:19;;;;;;;8.47;2.77;;;14.50;99.90;;;;;;5067577;28;20641;-50
2022/05/08 08:28:46;;;;;;;11.13;2.97;;;14.60;99.90;;;;;;5060192;28;20232;-51
2022/05/08 08:31:13;;;;;;;10.17;2.90;;;15.10;99.90;;;;;;5065544;28;20725;-52
2022/05/08 08:33:42;;;;;;;12.60;3.37;;;15.10;99.90;;;;;;5054871;28;20199;-51
2022/05/08 08:36:09;;;;;;;9.47;2.73;;;14.80;99.90;;;;;;5068624;28;20605;-51
2022/05/08 08:38:37;;;;;;;10.80;2.63;;;15.60;99.90;;;;;;5067199;28;20202;-51
2022/05/08 08:41:05;;;;;;;11.07;3.70;;;16.20;99.90;;;;;;5064671;28;20484;-51
2022/05/08 08:47:42;;;;;;;7.27;2.50;;;16.00;99.90;;;;;;5045173;28;20195;-51
2022/05/08 08:49:30;;;;;;;11.33;3.83;;;15.60;99.90;;;;;;5060378;28;20281;-50
2022/05/08 08:51:58;;;;;;;7.00;2.70;;;15.40;99.90;;;;;;5061723;28;20228;-51
2022/05/08 08:54:25;;;;;;;10.03;2.80;;;16.00;99.90;;;;;;5048753;28;20241;-51
2022/05/08 08:56:52;;;;;;;10.50;2.77;;;16.40;99.90;;;;;;5063650;28;20206;-52
2022/05/08 08:59:24;;;;;;;10.33;2.37;;;16.30;99.90;;;;;;5058776;28;20653;-52
2022/05/08 09:01:51;;;;;;;6.17;2.30;;;16.00;99.90;;;;;;5053072;28;20671;-50
2022/05/08 09:04:19;;;;;;;9.80;2.73;;;15.60;99.90;;;;;;5059037;28;20198;-53
2022/05/08 09:06:46;;;;;;;10.90;2.77;;;15.40;99.90;;;;;;5066891;28;20281;-51
2022/05/08 09:09:39;;;;;;;9.87;2.40;;;16.50;99.90;;;;;;5062979;28;20197;-51
2022/05/08 09:12:16;;;;;;;10.13;2.13;;;16.10;99.90;;;;;;5050410;28;20313;-50
2022/05/08 09:14:43;;;;;;;11.97;2.50;;;16.40;99.90;;;;;;5053548;28;20248;-54
2022/05/08 09:17:09;;;;;;;6.43;2.43;;;16.00;99.90;;;;;;5064849;28;20195;-52
2022/05/08 09:19:39;;;;;;;9.77;2.70;;;16.90;99.90;;;;;;5059643;28;20689;-52
2022/05/08 09:22:06;;;;;;;11.70;2.53;;;17.00;99.90;;;;;;5048090;28;20238;-52
2022/05/08 09:24:35;;;;;;;11.57;2.70;;;17.40;99.90;;;;;;5062577;28;20198;-51
2022/05/08 09:27:12;;;;;;;10.87;2.77;;;17.60;99.90;;;;;;5057279;28;20245;-52
2022/05/08 09:29:40;;;;;;;8.00;2.40;;;17.20;99.90;;;;;;5061938;28;20233;-50
2022/05/08 09:32:38;;;;;;;7.43;2.10;;;16.30;99.90;;;;;;5046761;28;20199;-50
2022/05/08 09:35:06;;;;;;;5.90;2.03;;;15.90;99.90;;;;;;5060287;28;20262;-53
2022/05/08 09:37:33;;;;;;;7.53;2.50;;;15.80;99.90;;;;;;5056998;28;20226;-50
2022/05/08 09:40:20;;;;;;;7.60;2.20;;;16.80;99.90;;;;;;5059731;28;20310;-50
2022/05/08 09:42:47;;;;;;;11.23;2.67;;;16.90;99.90;;;;;;5064137;28;20602;-51
2022/05/08 09:45:14;;;;;;;6.00;2.10;;;16.40;99.90;;;;;;5062823;28;20199;-52
2022/05/08 09:47:49;;;;;;;8.87;2.57;;;17.00;99.90;;;;;;5063133;28;20263;-51
2022/05/08 09:50:18;;;;;;;11.07;2.40;;;17.60;99.90;;;;;;5062472;28;20255;-50
2022/05/08 09:52:45;;;;;;;8.77;2.27;;;16.30;99.90;;;;;;5060373;28;20192;-52
2022/05/08 09:55:14;;;;;;;5.23;1.80;;;16.80;99.90;;;;;;5070206;28;20389;-51
2022/05/08 09:57:40;;;;;;;5.20;1.90;;;16.80;99.90;;;;;;5066446;28;20241;-50
2022/05/08 10:00:13;;;;;;;6.30;2.00;;;16.20;99.90;;;;;;5072412;28;20218;-51
2022/05/08 10:02:43;;;;;;;7.50;2.20;;;16.60;99.90;;;;;;5065012;28;20310;-51
2022/05/08 10:05:10;;;;;;;7.60;2.20;;;16.30;99.90;;;;;;5050885;28;20197;-53
2022/05/08 10:07:39;;;;;;;8.73;2.77;;;16.20;99.90;;;;;;5072920;28;20209;-51
2022/05/08 10:15:48;;;;;;;4.30;2.20;;;16.30;99.90;;;;;;5072157;28;20214;-51
2022/05/08 10:18:27;;;;;;;8.53;2.87;;;16.20;99.90;;;;;;5071784;28;20629;-51
2022/05/08 10:21:07;;;;;;;8.20;2.30;;;16.50;99.90;;;;;;5064503;28;20391;-52
2022/05/08 10:23:39;;;;;;;5.67;2.20;;;16.60;99.90;;;;;;5058729;28;20280;-51
2022/05/08 10:26:23;;;;;;;8.90;2.27;;;16.60;99.90;;;;;;5060582;28;20272;-51
2022/05/08 10:29:13;;;;;;;6.87;2.40;;;17.40;99.90;;;;;;5066617;28;20717;-50
2022/05/08 10:31:48;;;;;;;8.67;2.43;;;17.40;99.90;;;;;;5064067;28;20199;-51
2022/05/08 10:34:28;;;;;;;11.23;2.63;;;17.40;99.90;;;;;;5060769;28;20787;-51
2022/05/08 10:37:12;;;;;;;6.97;1.90;;;17.60;99.90;;;;;;5058841;28;20554;-51
2022/05/08 10:39:51;;;;;;;10.87;1.90;;;17.00;99.90;;;;;;5063044;28;20196;-50
2022/05/08 10:42:23;;;;;;;5.83;2.10;;;17.00;99.90;;;;;;5067062;28;20207;-51
2022/05/08 10:44:51;;;;;;;3.40;1.93;;;17.10;99.90;;;;;;5060347;28;20241;-53
2022/05/08 10:47:33;;;;;;;7.97;2.30;;;17.10;99.90;;;;;;5063258;28;20232;-51
2022/05/08 10:50:11;;;;;;;5.37;1.83;;;17.40;99.90;;;;;;5064881;28;20196;-52
2022/05/08 10:52:46;;;;;;;7.90;1.97;;;17.90;99.90;;;;;;5066951;28;20334;-51
2022/05/08 10:55:15;;;;;;;5.80;2.00;;;18.20;99.90;;;;;;5063747;28;20321;-48
2022/05/08 10:57:44;;;;;;;4.23;1.70;;;18.40;99.90;;;;;;5064740;28;20212;-51
2022/05/08 11:00:16;;;;;;;4.77;1.93;;;18.70;99.90;;;;;;5048298;28;20255;-50
2022/05/08 11:02:52;;;;;;;7.30;2.17;;;17.80;99.90;;;;;;5063393;28;20250;-51
2022/05/08 11:05:22;;;;;;;6.47;2.47;;;17.30;99.90;;;;;;5060463;28;20268;-52
2022/05/08 11:08:21;;;;;;;6.67;2.20;;;17.40;99.90;;;;;;5060949;28;20206;-53
2022/05/08 11:11:02;;;;;;;4.73;1.67;;;17.70;99.90;;;;;;5045480;28;20283;-51
2022/05/08 11:13:43;;;;;;;7.90;1.70;;;18.00;99.90;;;;;;5052831;28;20242;-52
2022/05/08 11:16:12;;;;;;;6.00;2.03;;;18.80;99.90;;;;;;5067006;28;20223;-53
2022/05/08 11:18:39;;;;;;;6.03;2.17;;;19.20;99.90;;;;;;5061964;28;20276;-52
2022/05/08 11:21:10;;;;;;;11.03;2.33;;;19.80;99.90;;;;;;5061582;28;20341;-53
2022/05/08 11:23:44;;;;;;;5.77;2.10;;;19.80;99.90;;;;;;5065844;28;20262;-52
2022/05/08 11:26:12;;;;;;;6.53;2.00;;;20.00;99.90;;;;;;5060836;28;20738;-51
2022/05/08 11:28:48;;;;;;;6.43;2.20;;;20.40;99.90;;;;;;5055353;28;20206;-52
2022/05/08 11:31:17;;;;;;;5.93;2.17;;;20.00;99.90;;;;;;5059248;28;20241;-51
2022/05/08 11:36:35;;;;;;;4.60;2.07;;;20.00;99.90;;;;;;5065128;28;20239;-52
2022/05/08 11:39:09;;;;;;;6.00;2.20;;;20.20;99.90;;;;;;5061900;28;20204;-53
2022/05/08 11:41:42;;;;;;;6.90;2.00;;;20.30;99.90;;;;;;5059300;28;20222;-52
2022/05/08 11:44:16;;;;;;;5.57;1.97;;;20.20;99.90;;;;;;5052806;28;20238;-52
2022/05/08 11:46:48;;;;;;;10.17;2.10;;;19.90;99.90;;;;;;5041858;28;20619;-52
2022/05/08 11:49:19;;;;;;;6.23;2.30;;;20.60;99.90;;;;;;5059300;28;20260;-53
2022/05/08 11:51:48;;;;;;;7.57;2.20;;;20.10;99.90;;;;;;5043402;28;20726;-52
2022/05/08 11:54:35;;;;;;;4.23;1.70;;;19.50;99.90;;;;;;5063550;28;20239;-51
2022/05/08 11:57:21;;;;;;;6.40;1.83;;;20.00;99.90;;;;;;5062114;28;20192;-52
2022/05/08 11:59:49;;;;;;;5.43;1.97;;;20.50;99.90;;;;;;5053762;28;20199;-52
2022/05/08 12:02:17;;;;;;;4.60;2.07;;;20.00;99.90;;;;;;5056887;28;20678;-51
2022/05/08 12:04:57;;;;;;;5.57;2.13;;;19.30;99.90;;;;;;5054709;28;20269;-52
2022/05/08 12:07:25;;;;;;;3.23;1.60;;;20.40;99.90;;;;;;5059440;28;20202;-53
2022/05/08 12:09:53;;;;;;;6.93;2.10;;;20.10;99.90;;;;;;5060646;28;20278;-52
2022/05/08 12:12:22;;;;;;;4.30;1.87;;;20.20;99.90;;;;;;5058625;28;20195;-52
2022/05/08 12:15:19;;;;;;;6.93;1.93;;;20.30;99.90;;;;;;5058167;28;20207;-52
2022/05/08 12:17:49;;;;;;;12.20;2.50;;;19.80;99.90;;;;;;5045039;28;20242;-52
2022/05/08 12:20:32;;;;;;;7.93;3.27;;;20.00;99.90;;;;;;5056480;28;20200;-53
2022/05/08 12:23:03;;;;;;;5.03;2.00;;;20.60;99.90;;;;;;5056415;28;20323;-53
2022/05/08 12:25:30;;;;;;;4.60;2.20;;;20.90;99.90;;;;;;5064440;28;20222;-51
2022/05/08 12:27:57;;;;;;;5.27;1.57;;;20.90;99.90;;;;;;5065494;28;20298;-52
2022/05/08 12:30:25;;;;;;;4.23;1.50;;;21.00;99.90;;;;;;5058144;28;20345;-53
2022/05/08 12:32:52;;;;;;;5.67;1.70;;;20.60;99.90;;;;;;5052436;28;20200;-53
2022/05/08 12:35:19;;;;;;;7.20;2.30;;;20.90;99.90;;;;;;5065447;28;20768;-52
2022/05/08 12:37:47;;;;;;;3.60;1.80;;;20.20;99.90;;;;;;5057077;28;20670;-55
2022/05/08 12:40:16;;;;;;;7.67;2.10;;;20.20;99.90;;;;;;5059315;28;20214;-51
2022/05/08 12:42:43;;;;;;;5.57;2.00;;;20.00;99.90;;;;;;5053783;28;20311;-52
2022/05/08 12:45:12;;;;;;;3.43;1.40;;;20.70;99.90;;;;;;5059414;28;20406;-52
2022/05/08 12:47:38;;;;;;;8.27;1.40;;;21.50;99.90;;;;;;5065585;28;20610;-52
2022/05/08 12:50:07;;;;;;;6.00;1.37;;;20.60;99.90;;;;;;5057550;28;20215;-52
2022/05/08 12:52:35;;;;;;;9.90;1.83;;;21.00;99.90;;;;;;5058546;28;20215;-52
2022/05/08 12:55:03;;;;;;;5.07;1.47;;;21.10;99.90;;;;;;5047072;28;20211;-52
2022/05/08 13:00:17;;;;;;;4.80;1.50;;;20.40;99.90;;;;;;5061132;28;20206;-52
2022/05/08 13:02:43;;;;;;;5.60;2.00;;;20.70;99.90;;;;;;5062666;28;21371;-53
2022/05/08 13:05:10;;;;;;;10.20;1.97;;;20.40;99.90;;;;;;5064758;28;20206;-52
2022/05/08 13:10:24;;;;;;;3.43;1.83;;;21.20;99.90;;;;;;5065112;28;20642;-51
2022/05/08 13:12:57;;;;;;;3.97;1.43;;;20.90;99.90;;;;;;5054030;28;20290;-50
2022/05/08 13:15:24;;;;;;;5.47;1.77;;;21.20;99.90;;;;;;5057591;28;20248;-53
2022/05/08 13:17:51;;;;;;;6.70;1.77;;;21.60;99.90;;;;;;5056059;28;20222;-53
2022/05/08 13:20:18;;;;;;;4.50;1.50;;;21.20;99.90;;;;;;5055483;28;20200;-52
2022/05/08 13:22:45;;;;;;;4.73;1.80;;;21.90;99.90;;;;;;5057224;28;20601;-53
2022/05/08 13:25:12;;;;;;;7.57;2.30;;;21.90;99.90;;;;;;5058072;28;20199;-53